Погода Алитубна неделю

Ростовская область, Россия

21 - 27 мая
  • 21мая
    Сегодня
    +10°
    +26°
    Ясно и безоблачно
    ВремяПогодаТемператураВлажностьДавлениеВетер, м/сВероятность осадков
    00:00Ясно и безоблачно+15°C70 %763 мм2.2 м/с2 %
    03:00Ясно и безоблачно+12°C81 %764 мм1.8 м/с2 %
    06:00Ясно и безоблачно+13°C80 %764 мм1.7 м/с2 %
    09:00Ясно и безоблачно+21°C51 %765 мм2.2 м/с2 %
    12:00Небольшая облачность+25°C34 %764 мм2.9 м/с2 %
    15:00Ясно и безоблачно+26°C27 %764 мм3.3 м/с2 %
    18:00Ясно и безоблачно+26°C31 %763 мм1.4 м/с2 %
    21:00Ясно и безоблачно+18°C53 %763 мм2.4 м/с2 %
  • 22мая
    Среда
    +11°
    +28°
    Ясно и безоблачно
    ВремяПогодаТемператураВлажностьДавлениеВетер, м/сВероятность осадков
    00:00Ясно и безоблачно+14°C68 %763 мм2.0 м/с2 %
    03:00Ясно и безоблачно+12°C76 %763 мм2.1 м/с2 %
    06:00Ясно и безоблачно+13°C67 %763 мм2.5 м/с2 %
    09:00Ясно и безоблачно+22°C41 %763 мм2.5 м/с2 %
    12:00Ясно и безоблачно+27°C23 %763 мм4.7 м/с2 %
    15:00Ясно и безоблачно+28°C23 %761 мм4.1 м/с2 %
    18:00Ясно и безоблачно+27°C29 %760 мм2.9 м/с2 %
    21:00Ясно и безоблачно+17°C48 %761 мм2.5 м/с2 %
  • 23мая
    Четверг
    +15°
    +29°
    Ясно и безоблачно
    ВремяПогодаТемператураВлажностьДавлениеВетер, м/сВероятность осадков
    00:00Ясно и безоблачно+14°C55 %761 мм2.4 м/с2 %
    03:00Ясно и безоблачно+12°C62 %761 мм2.2 м/с2 %
    06:00Ясно и безоблачно+13°C64 %761 мм2.6 м/с2 %
    09:00Ясно и безоблачно+22°C46 %762 мм3.3 м/с2 %
    12:00Ясно и безоблачно+27°C26 %761 мм5.8 м/с2 %
    15:00Ясно и безоблачно+28°C22 %760 мм5.4 м/с2 %
    18:00Ясно и безоблачно+27°C26 %760 мм4.8 м/с2 %
    21:00Ясно и безоблачно+21°C50 %762 мм6.0 м/с2 %
  • 24мая
    Пятница
    +12°
    +26°
    Ясно и безоблачно
    ВремяПогодаТемператураВлажностьДавлениеВетер, м/сВероятность осадков
    00:00Ясно и безоблачно+18°C60 %762 мм5.5 м/с2 %
    03:00Ясно и безоблачно+16°C68 %763 мм6.3 м/с2 %
    06:00Ясно и безоблачно+16°C59 %764 мм7.5 м/с2 %
    09:00Ясно и безоблачно+20°C41 %765 мм8.4 м/с2 %
    12:00Ясно и безоблачно+24°C33 %766 мм9.1 м/с2 %
    15:00Ясно и безоблачно+25°C28 %765 мм8.9 м/с4 %
    18:00Ясно и безоблачно+23°C23 %766 мм8.6 м/с11 %
    21:00Ясно и безоблачно+18°C26 %767 мм8.0 м/с2 %
Мы используем cookies
Соглашаюсь